createdAt,value
2023-03-30T00:01:10.760Z,16.95
2023-03-30T00:03:41.172Z,16.73
2023-03-30T00:06:10.523Z,16.30
2023-03-30T00:08:38.612Z,17.38
2023-03-30T00:11:13.350Z,16.35
2023-03-30T00:13:41.568Z,16.90
2023-03-30T00:16:13.982Z,16.27
2023-03-30T00:18:41.658Z,17.02
2023-03-30T00:21:11.129Z,16.83
2023-03-30T00:23:39.645Z,16.65
2023-03-30T00:26:08.076Z,17.15
2023-03-30T00:28:35.836Z,16.98
2023-03-30T00:31:03.831Z,16.67
2023-03-30T00:33:44.588Z,16.00
2023-03-30T00:36:14.750Z,16.67
2023-03-30T00:38:42.474Z,16.23
2023-03-30T00:41:11.030Z,16.42
2023-03-30T00:44:03.868Z,16.52
2023-03-30T00:46:33.171Z,15.88
2023-03-30T00:49:05.967Z,15.52
2023-03-30T00:51:37.907Z,12.57
2023-03-30T00:54:12.923Z,15.90
2023-03-30T00:56:41.256Z,16.55
2023-03-30T00:59:10.416Z,17.02
2023-03-30T01:01:40.382Z,16.73
2023-03-30T01:04:10.104Z,15.95
2023-03-30T01:06:40.425Z,15.63
2023-03-30T01:09:08.623Z,15.38
2023-03-30T01:11:36.576Z,16.23
2023-03-30T01:14:08.144Z,15.57
2023-03-30T01:16:56.962Z,16.10
2023-03-30T01:19:49.621Z,15.80
2023-03-30T01:22:50.205Z,16.08
2023-03-30T01:25:50.510Z,15.45
2023-03-30T01:28:21.377Z,15.27
2023-03-30T01:31:25.762Z,14.90
2023-03-30T01:34:25.685Z,15.82
2023-03-30T01:37:17.587Z,15.13
2023-03-30T01:39:51.790Z,15.30
2023-03-30T01:44:56.769Z,15.10
2023-03-30T01:47:36.659Z,15.18
2023-03-30T01:50:11.827Z,15.38
2023-03-30T01:52:56.295Z,16.10
2023-03-30T01:55:46.360Z,15.40
2023-03-30T01:58:39.675Z,15.05
2023-03-30T02:01:08.598Z,14.30
2023-03-30T02:03:40.765Z,14.60
2023-03-30T02:06:25.581Z,15.40
2023-03-30T02:08:56.819Z,15.43
2023-03-30T02:11:29.182Z,14.73
2023-03-30T02:13:58.742Z,15.85
2023-03-30T02:16:44.191Z,14.30
2023-03-30T02:19:12.312Z,14.95
2023-03-30T02:21:40.482Z,15.65
2023-03-30T02:24:17.744Z,15.20
2023-03-30T02:26:51.648Z,14.68
2023-03-30T02:29:22.401Z,15.30
2023-03-30T02:31:57.195Z,14.63
2023-03-30T02:34:55.865Z,14.48
2023-03-30T02:37:24.258Z,15.50
2023-03-30T02:39:59.825Z,14.35
2023-03-30T02:42:33.552Z,15.40
2023-03-30T02:45:39.292Z,15.27
2023-03-30T02:48:18.814Z,14.38
2023-03-30T02:51:08.738Z,14.85
2023-03-30T02:54:16.273Z,15.20
2023-03-30T02:57:19.792Z,15.27
2023-03-30T02:59:58.794Z,14.30
2023-03-30T03:02:37.410Z,14.77
2023-03-30T03:05:19.331Z,14.32
2023-03-30T03:08:07.218Z,14.50
2023-03-30T03:10:36.991Z,15.27
2023-03-30T03:13:05.748Z,13.57
2023-03-30T03:15:34.012Z,14.88
2023-03-30T03:18:07.325Z,15.27
2023-03-30T03:20:35.277Z,14.65
2023-03-30T03:23:03.637Z,14.75
2023-03-30T03:25:38.801Z,14.77
2023-03-30T03:28:07.859Z,13.85
2023-03-30T03:30:45.790Z,15.10
2023-03-30T03:33:20.461Z,15.50
2023-03-30T03:36:02.501Z,14.30
2023-03-30T03:38:32.578Z,13.95
2023-03-30T03:41:01.473Z,14.18
2023-03-30T03:43:31.287Z,15.48
2023-03-30T03:45:59.400Z,14.02
2023-03-30T03:48:27.207Z,14.07
2023-03-30T03:50:58.534Z,13.82
2023-03-30T03:53:29.274Z,14.57
2023-03-30T03:56:02.420Z,14.70
2023-03-30T03:58:30.188Z,14.82
2023-03-30T04:01:03.007Z,14.38
2023-03-30T04:03:31.626Z,14.70
2023-03-30T04:06:00.805Z,14.48
2023-03-30T04:08:29.062Z,14.10
2023-03-30T04:11:21.374Z,15.07
2023-03-30T04:14:07.551Z,14.10
2023-03-30T04:16:44.725Z,14.38
2023-03-30T04:19:31.578Z,14.07
2023-03-30T04:22:26.832Z,14.43
2023-03-30T04:25:26.790Z,14.43
2023-03-30T04:28:14.594Z,14.77
2023-03-30T04:31:10.877Z,14.45
2023-03-30T04:34:02.638Z,13.98
2023-03-30T04:36:50.714Z,15.05
2023-03-30T04:39:30.102Z,14.10
2023-03-30T04:42:14.293Z,14.82
2023-03-30T04:45:01.604Z,14.45
2023-03-30T04:47:49.279Z,15.68
2023-03-30T04:50:36.546Z,14.65
2023-03-30T04:53:23.133Z,14.52
2023-03-30T04:55:52.017Z,13.35
2023-03-30T04:58:41.037Z,14.48
2023-03-30T05:01:35.071Z,13.55
2023-03-30T05:04:11.369Z,14.48
2023-03-30T05:06:54.242Z,13.25
2023-03-30T05:09:40.008Z,13.90
2023-03-30T05:12:39.774Z,14.85
2023-03-30T05:15:13.100Z,13.90
2023-03-30T05:18:13.540Z,14.45
2023-03-30T05:21:01.066Z,14.00
2023-03-30T05:23:49.900Z,14.13
2023-03-30T05:26:37.402Z,14.95
2023-03-30T05:29:17.350Z,14.30
2023-03-30T05:32:03.288Z,14.57
2023-03-30T05:34:48.028Z,13.68
2023-03-30T05:37:34.417Z,15.07
2023-03-30T05:40:23.166Z,14.50
2023-03-30T05:45:45.952Z,13.95
2023-03-30T05:48:36.745Z,14.60
2023-03-30T05:51:25.747Z,15.18
2023-03-30T05:54:06.582Z,14.95
2023-03-30T05:56:53.296Z,15.50
2023-03-30T05:59:31.286Z,14.82
2023-03-30T06:02:19.728Z,14.93
2023-03-30T06:04:48.575Z,14.00
2023-03-30T06:07:18.035Z,15.15
2023-03-30T06:09:46.218Z,15.15
2023-03-30T06:12:24.184Z,15.75
2023-03-30T06:14:51.995Z,14.93
2023-03-30T06:17:42.818Z,15.10
2023-03-30T06:20:14.226Z,14.73
2023-03-30T06:22:46.194Z,15.15
2023-03-30T06:25:20.404Z,14.68
2023-03-30T06:27:48.469Z,14.55
2023-03-30T06:30:16.949Z,14.82
2023-03-30T06:32:48.810Z,15.23
2023-03-30T06:35:26.053Z,14.68
2023-03-30T06:37:55.504Z,13.90
2023-03-30T06:40:23.184Z,13.82
2023-03-30T06:42:52.963Z,13.68
2023-03-30T06:45:44.297Z,14.20
2023-03-30T06:48:12.136Z,13.35
2023-03-30T06:50:41.551Z,14.18
2023-03-30T06:53:23.381Z,13.13
2023-03-30T06:55:54.249Z,14.18
2023-03-30T06:58:25.685Z,14.43
2023-03-30T07:00:54.357Z,13.52
2023-03-30T07:03:58.678Z,13.70
2023-03-30T07:06:49.610Z,13.27
2023-03-30T07:09:17.385Z,14.82
2023-03-30T07:11:45.623Z,14.10
2023-03-30T07:14:13.440Z,13.35
2023-03-30T07:16:41.603Z,13.75
2023-03-30T07:19:09.732Z,13.77
2023-03-30T07:21:37.569Z,13.45
2023-03-30T07:24:08.156Z,13.90
2023-03-30T07:26:37.359Z,12.98
2023-03-30T07:29:08.231Z,12.82
2023-03-30T07:31:38.759Z,13.57
2023-03-30T07:34:09.396Z,13.13
2023-03-30T07:36:41.792Z,13.18
2023-03-30T07:39:09.865Z,13.38
2023-03-30T07:41:40.759Z,13.63
2023-03-30T07:44:08.459Z,13.52
2023-03-30T07:46:36.770Z,14.20
2023-03-30T07:49:05.116Z,14.05
2023-03-30T07:51:34.584Z,13.20
2023-03-30T07:54:18.952Z,13.43
2023-03-30T07:56:59.558Z,13.48
2023-03-30T07:59:27.184Z,13.45
2023-03-30T08:02:04.671Z,13.52
2023-03-30T08:04:45.137Z,13.65
2023-03-30T08:07:16.590Z,13.88
2023-03-30T08:09:45.882Z,13.73
2023-03-30T08:12:13.678Z,13.63
2023-03-30T08:14:41.288Z,13.57
2023-03-30T08:17:09.171Z,13.43
2023-03-30T08:19:36.714Z,12.88
2023-03-30T08:22:04.886Z,13.90
2023-03-30T08:24:32.472Z,14.15
2023-03-30T08:27:00.650Z,13.93
2023-03-30T08:29:29.612Z,12.82
2023-03-30T08:31:57.651Z,13.55
2023-03-30T08:34:25.221Z,12.75
2023-03-30T08:36:53.112Z,12.85
2023-03-30T08:39:20.612Z,13.05
2023-03-30T08:42:16.097Z,13.00
2023-03-30T08:44:49.502Z,13.02
2023-03-30T08:47:24.856Z,13.10
2023-03-30T08:50:02.443Z,11.82
2023-03-30T08:52:32.789Z,11.52
2023-03-30T08:55:01.298Z,13.45
2023-03-30T08:57:51.791Z,13.02
2023-03-30T09:00:32.229Z,13.73
2023-03-30T09:03:37.158Z,12.57
2023-03-30T09:06:21.782Z,12.70
2023-03-30T09:08:50.412Z,13.20
2023-03-30T09:11:31.841Z,13.02
2023-03-30T09:14:04.012Z,12.57
2023-03-30T09:16:44.858Z,13.20
2023-03-30T09:19:24.970Z,12.95
2023-03-30T09:21:55.801Z,13.50
2023-03-30T09:24:27.325Z,12.90
2023-03-30T09:27:09.742Z,12.60
2023-03-30T09:29:46.687Z,12.45
2023-03-30T09:32:31.508Z,13.38
2023-03-30T09:35:18.925Z,12.50
2023-03-30T09:37:47.131Z,12.52
2023-03-30T09:40:26.761Z,13.15
2023-03-30T09:43:19.938Z,12.98
2023-03-30T09:45:47.936Z,13.55
2023-03-30T09:48:16.991Z,13.10
2023-03-30T09:50:46.845Z,13.43
2023-03-30T09:53:24.907Z,13.75
2023-03-30T09:56:00.269Z,13.52
2023-03-30T09:58:33.442Z,12.95
2023-03-30T10:01:13.222Z,12.80
2023-03-30T10:03:42.723Z,13.00
2023-03-30T10:06:28.516Z,13.60
2023-03-30T10:08:57.093Z,13.60
2023-03-30T10:11:49.346Z,12.90
2023-03-30T10:14:31.579Z,13.32
2023-03-30T10:17:00.154Z,12.85
2023-03-30T10:19:28.541Z,12.40
2023-03-30T10:21:59.102Z,13.65
2023-03-30T10:24:31.537Z,13.27
2023-03-30T10:27:09.767Z,13.85
2023-03-30T10:29:37.766Z,13.20
2023-03-30T10:32:14.569Z,14.57
2023-03-30T10:34:46.879Z,14.75
2023-03-30T10:37:27.118Z,13.85
2023-03-30T10:39:58.264Z,13.40
2023-03-30T10:42:30.582Z,13.70
2023-03-30T10:45:06.381Z,13.85
2023-03-30T10:48:01.421Z,13.75
2023-03-30T10:50:44.818Z,13.68
2023-03-30T10:53:31.118Z,12.57
2023-03-30T10:56:04.312Z,12.55
2023-03-30T10:59:08.575Z,12.85
2023-03-30T11:01:56.522Z,13.10
2023-03-30T11:04:37.716Z,13.13
2023-03-30T11:07:13.271Z,12.80
2023-03-30T11:09:46.351Z,12.85
2023-03-30T11:12:21.140Z,11.90
2023-03-30T11:15:03.098Z,11.93
2023-03-30T11:18:00.622Z,11.77
2023-03-30T11:20:35.741Z,11.55
2023-03-30T11:23:19.731Z,11.18
2023-03-30T11:26:00.470Z,11.13
2023-03-30T11:28:52.893Z,10.40
2023-03-30T11:31:35.469Z,10.45
2023-03-30T11:34:30.090Z,11.35
2023-03-30T11:37:12.685Z,10.80
2023-03-30T11:39:48.009Z,11.55
2023-03-30T11:42:24.058Z,10.85
2023-03-30T11:44:52.351Z,11.80
2023-03-30T11:47:41.635Z,11.32
2023-03-30T11:50:59.841Z,11.73
2023-03-30T11:53:40.795Z,10.38
2023-03-30T11:56:28.267Z,10.95
2023-03-30T11:59:13.254Z,10.55
2023-03-30T12:02:12.394Z,10.90
2023-03-30T12:04:46.556Z,10.60
2023-03-30T12:07:36.036Z,10.48
2023-03-30T12:10:17.517Z,11.10
2023-03-30T12:12:46.064Z,9.57
2023-03-30T12:15:34.639Z,10.75
2023-03-30T12:18:33.310Z,10.65
2023-03-30T12:21:08.964Z,10.18
2023-03-30T12:23:48.022Z,10.68
2023-03-30T12:26:24.800Z,10.18
2023-03-30T12:31:55.685Z,10.35
2023-03-30T12:34:28.893Z,10.05
2023-03-30T12:37:14.768Z,8.95
2023-03-30T12:39:49.429Z,10.13
2023-03-30T12:42:26.640Z,9.93
2023-03-30T12:45:22.583Z,10.05
2023-03-30T12:48:23.231Z,9.27
2023-03-30T12:51:18.197Z,9.57
2023-03-30T12:56:51.676Z,9.32
2023-03-30T12:59:31.608Z,9.13
2023-03-30T13:02:43.194Z,9.68
2023-03-30T13:05:27.160Z,9.70
2023-03-30T13:07:56.378Z,9.55
2023-03-30T13:10:29.818Z,8.95
2023-03-30T13:13:01.385Z,8.90
2023-03-30T13:15:38.892Z,8.48
2023-03-30T13:18:09.714Z,9.07
2023-03-30T13:20:57.591Z,7.93
2023-03-30T13:23:33.829Z,8.65
2023-03-30T13:26:33.995Z,8.73
2023-03-30T13:29:15.831Z,9.10
2023-03-30T13:32:02.928Z,8.40
2023-03-30T13:34:54.754Z,8.80
2023-03-30T13:38:01.417Z,7.95
2023-03-30T13:40:41.623Z,8.20
2023-03-30T13:43:30.108Z,7.63
2023-03-30T13:46:19.401Z,7.22
2023-03-30T13:49:00.386Z,7.75
2023-03-30T13:51:30.713Z,7.65
2023-03-30T13:54:14.151Z,7.30
2023-03-30T13:56:48.310Z,7.15
2023-03-30T13:59:22.986Z,8.40
2023-03-30T14:01:54.895Z,7.10
2023-03-30T14:04:22.734Z,7.13
2023-03-30T14:06:52.467Z,7.20
2023-03-30T14:09:23.540Z,7.13
2023-03-30T14:12:02.560Z,6.78
2023-03-30T14:14:33.362Z,6.68
2023-03-30T14:17:11.568Z,6.68
2023-03-30T14:20:06.808Z,6.65
2023-03-30T14:22:41.006Z,6.70
2023-03-30T14:25:26.216Z,6.68
2023-03-30T14:27:56.547Z,6.53
2023-03-30T14:30:31.857Z,6.40
2023-03-30T14:33:11.425Z,6.55
2023-03-30T14:35:47.076Z,7.03
2023-03-30T14:38:22.088Z,6.43
2023-03-30T14:40:51.346Z,6.60
2023-03-30T14:43:24.596Z,8.90
2023-03-30T14:45:58.803Z,6.60
2023-03-30T14:48:37.600Z,6.45
2023-03-30T14:51:20.445Z,6.15
2023-03-30T14:53:49.566Z,5.82
2023-03-30T14:56:18.576Z,5.70
2023-03-30T14:58:48.020Z,6.05
2023-03-30T15:01:20.643Z,5.32
2023-03-30T15:03:49.345Z,5.75
2023-03-30T15:06:24.332Z,4.90
2023-03-30T15:08:52.727Z,5.38
2023-03-30T15:11:26.441Z,4.45
2023-03-30T15:13:58.771Z,5.43
2023-03-30T15:16:29.787Z,5.50
2023-03-30T15:19:12.111Z,5.47
2023-03-30T15:21:40.000Z,5.50
2023-03-30T15:24:13.168Z,5.80
2023-03-30T15:26:47.806Z,5.85
2023-03-30T15:29:18.731Z,6.10
2023-03-30T15:31:46.337Z,6.25
2023-03-30T15:34:18.198Z,6.68
2023-03-30T15:36:52.843Z,6.63
2023-03-30T15:39:25.141Z,7.03
2023-03-30T15:42:01.875Z,6.78
2023-03-30T15:44:33.805Z,6.88
2023-03-30T15:47:01.845Z,7.10
2023-03-30T15:49:51.486Z,6.90
2023-03-30T15:52:24.558Z,7.55
2023-03-30T15:54:55.532Z,7.43
2023-03-30T15:57:28.098Z,7.90
2023-03-30T16:00:06.648Z,7.82
2023-03-30T16:02:47.608Z,8.77
2023-03-30T16:05:21.628Z,8.85
2023-03-30T16:07:49.828Z,8.95
2023-03-30T16:10:24.730Z,9.32
2023-03-30T16:12:54.361Z,9.18
2023-03-30T16:15:25.219Z,9.07
2023-03-30T16:17:53.198Z,9.40
2023-03-30T16:20:27.508Z,8.68
2023-03-30T16:22:55.438Z,9.68
2023-03-30T16:25:41.698Z,10.00
2023-03-30T16:28:17.703Z,9.18
2023-03-30T16:30:48.340Z,9.43
2023-03-30T16:33:16.074Z,9.80
2023-03-30T16:35:44.004Z,9.10
2023-03-30T16:38:18.987Z,10.23
2023-03-30T16:40:54.729Z,9.95
2023-03-30T16:43:22.444Z,9.07
2023-03-30T16:45:51.377Z,10.07
2023-03-30T16:48:19.058Z,9.57
2023-03-30T16:50:54.980Z,9.52
2023-03-30T16:53:22.794Z,9.18
2023-03-30T16:55:51.062Z,9.40
2023-03-30T16:58:18.647Z,9.52
2023-03-30T17:00:49.127Z,9.23
2023-03-30T17:03:17.922Z,8.90
2023-03-30T17:05:49.244Z,7.72
2023-03-30T17:08:28.679Z,8.52
2023-03-30T17:11:01.038Z,8.40
2023-03-30T17:13:29.174Z,8.40
2023-03-30T17:15:59.747Z,7.97
2023-03-30T17:18:28.181Z,8.07
2023-03-30T17:20:58.518Z,7.93
2023-03-30T17:23:28.089Z,7.93
2023-03-30T17:25:58.191Z,8.48
2023-03-30T17:28:34.115Z,8.27
2023-03-30T17:31:04.476Z,7.70
2023-03-30T17:33:34.235Z,7.32
2023-03-30T17:36:07.008Z,7.57
2023-03-30T17:38:34.700Z,7.30
2023-03-30T17:41:02.707Z,8.05
2023-03-30T17:43:30.323Z,7.90
2023-03-30T17:45:58.254Z,7.40
2023-03-30T17:48:26.170Z,7.93
2023-03-30T17:50:54.021Z,7.70
2023-03-30T17:53:23.355Z,7.80
2023-03-30T17:55:52.484Z,7.82
2023-03-30T17:58:32.907Z,9.00
2023-03-30T18:01:02.984Z,8.95
2023-03-30T18:03:31.343Z,8.02
2023-03-30T18:06:00.771Z,8.45
2023-03-30T18:08:29.417Z,8.82
2023-03-30T18:10:59.184Z,9.55
2023-03-30T18:13:28.507Z,8.88
2023-03-30T18:15:58.430Z,9.23
2023-03-30T18:18:29.456Z,9.18
2023-03-30T18:21:02.724Z,9.10
2023-03-30T18:23:31.648Z,9.50
2023-03-30T18:25:59.668Z,8.60
2023-03-30T18:28:28.077Z,10.10
2023-03-30T18:30:57.527Z,10.60
2023-03-30T18:33:27.106Z,9.18
2023-03-30T18:35:56.992Z,10.70
2023-03-30T18:38:25.732Z,9.93
2023-03-30T18:40:57.637Z,10.73
2023-03-30T18:43:28.630Z,9.88
2023-03-30T18:46:02.543Z,9.93
2023-03-30T18:48:30.947Z,10.15
2023-03-30T18:50:58.934Z,10.73
2023-03-30T18:53:28.460Z,10.48
2023-03-30T18:56:00.554Z,11.50
2023-03-30T18:58:33.765Z,10.93
2023-03-30T19:01:02.048Z,12.07
2023-03-30T19:03:30.186Z,11.98
2023-03-30T19:05:58.204Z,11.05
2023-03-30T19:08:27.158Z,10.98
2023-03-30T19:10:57.557Z,11.23
2023-03-30T19:13:26.768Z,12.07
2023-03-30T19:15:55.483Z,11.82
2023-03-30T19:18:23.161Z,11.38
2023-03-30T19:20:51.875Z,12.05
2023-03-30T19:23:21.905Z,12.77
2023-03-30T19:25:49.879Z,12.93
2023-03-30T19:28:18.821Z,13.93
2023-03-30T19:30:46.953Z,13.82
2023-03-30T19:33:16.962Z,14.30
2023-03-30T19:35:46.492Z,14.27
2023-03-30T19:38:15.512Z,14.85
2023-03-30T19:40:43.621Z,14.07
2023-03-30T19:43:11.664Z,13.88
2023-03-30T19:45:39.736Z,15.07
2023-03-30T19:48:07.910Z,14.20
2023-03-30T19:50:35.855Z,15.10
2023-03-30T19:53:03.698Z,15.35
2023-03-30T19:55:31.284Z,14.88
2023-03-30T19:57:59.146Z,15.43
2023-03-30T20:00:26.800Z,16.02
2023-03-30T20:02:56.539Z,15.68
2023-03-30T20:05:25.498Z,15.98
2023-03-30T20:07:53.767Z,16.55
2023-03-30T20:10:25.007Z,16.02
2023-03-30T20:12:53.388Z,16.85
2023-03-30T20:15:23.011Z,16.38
2023-03-30T20:17:56.188Z,16.95
2023-03-30T20:20:25.540Z,17.05
2023-03-30T20:22:56.326Z,17.80
2023-03-30T20:25:24.938Z,18.00
2023-03-30T20:27:53.575Z,17.70
2023-03-30T20:30:21.594Z,16.70
2023-03-30T20:33:00.044Z,17.70
2023-03-30T20:35:38.242Z,17.38
2023-03-30T20:38:08.242Z,17.73
2023-03-30T20:40:36.249Z,16.88
2023-03-30T20:43:09.920Z,17.80
2023-03-30T20:45:46.431Z,17.13
2023-03-30T20:48:27.657Z,18.33
2023-03-30T20:50:56.186Z,18.17
2023-03-30T20:53:25.018Z,18.27
2023-03-30T20:55:52.748Z,18.45
2023-03-30T20:58:22.526Z,18.45
2023-03-30T21:00:53.179Z,19.48
2023-03-30T21:03:21.627Z,20.08
2023-03-30T21:06:00.463Z,20.95
2023-03-30T21:08:29.040Z,21.33
2023-03-30T21:10:56.751Z,21.15
2023-03-30T21:13:24.927Z,21.65
2023-03-30T21:16:00.521Z,21.58
2023-03-30T21:18:28.772Z,21.33
2023-03-30T21:20:56.874Z,22.02
2023-03-30T21:23:25.473Z,22.50
2023-03-30T21:26:07.090Z,22.58
2023-03-30T21:28:36.791Z,23.73
2023-03-30T21:31:09.295Z,22.58
2023-03-30T21:33:37.868Z,23.13
2023-03-30T21:36:06.690Z,22.98
2023-03-30T21:38:35.668Z,22.98
2023-03-30T21:41:12.343Z,21.42
2023-03-30T21:43:44.089Z,23.27
2023-03-30T21:46:21.739Z,23.00
2023-03-30T21:48:53.742Z,22.50
2023-03-30T21:51:27.210Z,22.95
2023-03-30T21:53:56.373Z,23.88
2023-03-30T21:56:26.089Z,24.17
2023-03-30T21:58:54.475Z,25.70
2023-03-30T22:01:26.023Z,24.63
2023-03-30T22:03:55.344Z,25.00
2023-03-30T22:06:23.913Z,25.10
2023-03-30T22:08:51.870Z,25.02
2023-03-30T22:11:23.062Z,25.02
2023-03-30T22:13:52.298Z,24.73
2023-03-30T22:16:25.691Z,24.10
2023-03-30T22:18:54.014Z,25.27
2023-03-30T22:21:34.345Z,24.90
2023-03-30T22:24:04.561Z,25.92
2023-03-30T22:26:32.823Z,26.17
2023-03-30T22:29:00.925Z,26.50
2023-03-30T22:31:28.820Z,25.70
2023-03-30T22:33:56.865Z,24.80
2023-03-30T22:36:32.316Z,24.88
2023-03-30T22:39:01.504Z,24.65
2023-03-30T22:41:30.459Z,23.23
2023-03-30T22:43:58.898Z,24.27
2023-03-30T22:46:27.699Z,24.73
2023-03-30T22:48:56.154Z,25.52
2023-03-30T22:51:27.848Z,23.55
2023-03-30T22:54:00.468Z,23.88
2023-03-30T22:56:29.303Z,24.55
2023-03-30T22:58:57.877Z,24.60
2023-03-30T23:01:25.817Z,25.27
2023-03-30T23:03:54.494Z,23.23
2023-03-30T23:06:22.331Z,23.33
2023-03-30T23:08:51.770Z,22.05
2023-03-30T23:11:21.574Z,23.20
2023-03-30T23:13:50.141Z,24.30
2023-03-30T23:16:17.792Z,23.40
2023-03-30T23:18:45.924Z,23.70
2023-03-30T23:21:14.148Z,24.70
2023-03-30T23:23:42.625Z,24.83
2023-03-30T23:26:11.175Z,24.63
2023-03-30T23:28:41.849Z,23.10
2023-03-30T23:31:15.744Z,23.38
2023-03-30T23:36:13.985Z,22.02
2023-03-30T23:38:43.612Z,22.30
2023-03-30T23:41:14.366Z,23.00
2023-03-30T23:43:42.278Z,22.48
2023-03-30T23:46:10.545Z,21.98
2023-03-30T23:48:39.683Z,21.42
2023-03-30T23:51:08.245Z,22.70
2023-03-30T23:53:40.381Z,21.27
2023-03-30T23:56:13.023Z,22.35
2023-03-30T23:58:41.436Z,23.52
